createdAt,value
2023-04-18T03:17:10.578Z,19.90
2023-04-18T03:19:36.922Z,20.00
2023-04-18T03:23:57.176Z,20.10
2023-04-18T03:25:28.585Z,20.10
2023-04-18T03:44:49.060Z,20.10
2023-04-18T03:47:22.610Z,20.10
2023-04-18T03:49:52.299Z,20.30
2023-04-18T03:55:43.729Z,20.30
2023-04-18T03:58:14.032Z,20.40
2023-04-18T04:00:44.788Z,20.50
2023-04-18T04:03:14.329Z,20.60
2023-04-18T04:05:53.277Z,20.60
2023-04-18T04:11:52.831Z,20.70
2023-04-18T04:23:11.812Z,20.80
2023-04-18T04:25:41.229Z,20.70
2023-04-18T04:28:10.658Z,20.70
2023-04-18T04:30:43.273Z,20.60
2023-04-18T04:33:21.706Z,20.50
2023-04-18T04:35:51.363Z,20.40
2023-04-18T04:38:26.731Z,20.30
2023-04-18T04:40:56.076Z,20.30
2023-04-18T04:43:25.562Z,20.40
2023-04-18T04:45:54.950Z,20.30
2023-04-18T04:48:26.150Z,20.50
2023-04-18T04:50:57.272Z,20.50
2023-04-18T04:56:44.933Z,20.50
2023-04-18T04:59:14.394Z,20.40
2023-04-18T05:01:45.116Z,20.40
2023-04-18T05:04:15.062Z,20.40
2023-04-18T05:06:44.882Z,20.50
2023-04-18T05:09:15.417Z,20.60
2023-04-18T05:11:48.837Z,20.60
2023-04-18T05:14:19.290Z,20.70
2023-04-18T05:16:48.895Z,20.70
2023-04-18T05:19:18.355Z,20.80
2023-04-18T05:21:47.751Z,20.80
2023-04-18T05:24:18.401Z,20.80
2023-04-18T05:27:15.047Z,20.80
2023-04-18T05:29:45.286Z,20.80
2023-04-18T05:32:33.206Z,20.80
2023-04-18T05:35:02.629Z,20.70
2023-04-18T05:37:32.194Z,20.70
2023-04-18T05:40:01.931Z,20.70
2023-04-18T05:42:31.326Z,20.70
2023-04-18T05:45:00.812Z,20.70
2023-04-18T05:47:35.157Z,20.60
2023-04-18T05:50:04.977Z,20.50
2023-04-18T05:52:35.234Z,20.30
2023-04-18T05:55:04.595Z,20.30
2023-04-18T05:57:34.027Z,20.30
2023-04-18T06:00:03.463Z,20.30
2023-04-18T06:02:33.108Z,20.30
2023-04-18T06:05:02.997Z,20.40
2023-04-18T06:07:33.200Z,20.40
2023-04-18T06:10:21.270Z,20.40
2023-04-18T06:12:50.771Z,20.40
2023-04-18T07:29:02.615Z,17.80
2023-04-18T07:31:52.322Z,17.70
2023-04-18T07:38:15.648Z,17.40
2023-04-18T07:40:47.162Z,17.30
2023-04-18T07:43:18.728Z,17.30
2023-04-18T07:45:49.836Z,17.20
2023-04-18T07:48:19.303Z,17.10
2023-04-18T07:50:49.109Z,17.00
2023-04-18T07:53:18.683Z,16.90
2023-04-18T07:55:48.581Z,16.80
2023-04-18T07:58:18.172Z,16.70
2023-04-18T08:00:47.944Z,16.60
2023-04-18T08:03:17.854Z,16.40
2023-04-18T08:05:47.464Z,16.30
2023-04-18T08:08:16.933Z,16.30
2023-04-18T08:10:46.455Z,16.20
2023-04-18T08:13:16.212Z,16.10
2023-04-18T08:15:45.680Z,16.10
2023-04-18T08:18:15.210Z,16.00
2023-04-18T08:20:45.065Z,15.90
2023-04-18T08:23:14.529Z,15.90
2023-04-18T08:25:44.075Z,15.80
2023-04-18T08:28:14.013Z,15.80
2023-04-18T08:30:45.717Z,15.80
2023-04-18T08:33:15.514Z,15.70
2023-04-18T08:35:45.472Z,15.70
2023-04-18T08:38:15.426Z,15.70
2023-04-18T08:40:47.057Z,15.50
2023-04-18T08:43:17.379Z,15.50
2023-04-18T08:45:47.544Z,15.50
2023-04-18T08:48:17.907Z,15.40
2023-04-18T08:50:47.860Z,15.40
2023-04-18T08:53:19.398Z,15.40
2023-04-18T08:55:50.091Z,15.30
2023-04-18T08:58:23.921Z,15.30
2023-04-18T09:00:56.790Z,15.30
2023-04-18T09:03:45.670Z,15.20
2023-04-18T09:06:17.924Z,15.10
2023-04-18T09:08:59.196Z,15.00
2023-04-18T09:11:30.881Z,15.00
2023-04-18T09:14:00.800Z,14.90
2023-04-18T09:16:31.415Z,14.90
2023-04-18T09:19:15.450Z,14.80
2023-04-18T09:21:50.373Z,14.70
2023-04-18T09:24:28.694Z,14.70
2023-04-18T09:27:00.338Z,14.60
2023-04-18T09:29:50.793Z,14.60
2023-04-18T09:32:28.627Z,14.60
2023-04-18T09:35:04.591Z,14.60
2023-04-18T09:37:34.406Z,14.60
2023-04-18T09:40:17.678Z,14.50
2023-04-18T09:42:47.921Z,14.50
2023-04-18T09:45:17.887Z,14.40
2023-04-18T09:47:47.444Z,14.40
2023-04-18T09:50:19.883Z,14.30
2023-04-18T09:52:51.200Z,14.30
2023-04-18T09:55:21.354Z,14.30
2023-04-18T09:57:51.375Z,14.20
2023-04-18T10:00:28.247Z,14.20
2023-04-18T10:03:02.420Z,14.30
2023-04-18T10:05:37.830Z,14.30
2023-04-18T10:08:08.211Z,14.30
2023-04-18T10:10:39.161Z,14.30
2023-04-18T10:13:13.317Z,14.30
2023-04-18T10:15:44.168Z,14.30
2023-04-18T10:18:17.769Z,14.30
2023-04-18T10:20:50.069Z,14.30
2023-04-18T10:23:38.123Z,14.30
2023-04-18T10:26:12.081Z,14.30
2023-04-18T10:28:59.927Z,14.30
2023-04-18T10:31:30.173Z,14.30
2023-04-18T10:34:05.107Z,14.30
2023-04-18T10:36:35.862Z,14.30
2023-04-18T10:39:23.577Z,14.30
2023-04-18T10:41:54.786Z,14.30
2023-04-18T10:44:25.101Z,14.20
2023-04-18T10:46:54.598Z,14.30
2023-04-18T10:49:27.361Z,14.20
2023-04-18T10:52:02.271Z,14.20
2023-04-18T10:54:35.647Z,14.30
2023-04-18T10:57:06.637Z,14.20
2023-04-18T10:59:37.334Z,14.30
2023-04-18T11:02:25.569Z,14.20
2023-04-18T11:04:56.137Z,14.20
2023-04-18T11:07:50.503Z,14.20
2023-04-18T11:10:30.502Z,14.20
2023-04-18T11:13:06.493Z,14.10
2023-04-18T11:15:38.977Z,14.10
2023-04-18T11:18:08.453Z,14.10
2023-04-18T11:20:42.109Z,14.10
2023-04-18T11:23:19.131Z,14.20
2023-04-18T11:25:48.724Z,14.10
2023-04-18T11:28:21.968Z,14.10
2023-04-18T11:30:51.528Z,14.10
2023-04-18T11:33:21.374Z,14.10
2023-04-18T11:35:52.016Z,14.10
2023-04-18T11:38:23.888Z,14.10
2023-04-18T11:40:54.115Z,14.00
2023-04-18T11:43:24.492Z,14.10
2023-04-18T11:45:58.040Z,14.00
2023-04-18T11:48:38.272Z,14.00
2023-04-18T11:51:08.731Z,14.00
2023-04-18T11:53:40.817Z,14.00
2023-04-18T11:56:10.273Z,14.00
2023-04-18T11:58:40.197Z,14.00
2023-04-18T12:01:29.545Z,13.90
2023-04-18T12:04:19.031Z,13.80
2023-04-18T12:06:48.773Z,13.80
2023-04-18T12:09:19.486Z,13.80
2023-04-18T12:12:04.759Z,13.70
2023-04-18T12:14:34.216Z,13.70
2023-04-18T12:17:05.596Z,13.70
2023-04-18T12:19:36.864Z,13.60
2023-04-18T12:22:09.944Z,13.60
2023-04-18T12:24:39.941Z,13.60
2023-04-18T12:27:09.747Z,13.50
2023-04-18T12:29:39.154Z,13.40
2023-04-18T12:32:08.920Z,13.30
2023-04-18T12:34:38.350Z,13.30
2023-04-18T12:37:08.126Z,13.30
2023-04-18T12:39:37.462Z,13.30
2023-04-18T12:42:07.405Z,13.30
2023-04-18T12:44:37.311Z,13.20
2023-04-18T12:47:07.883Z,13.20
2023-04-18T12:49:37.366Z,13.10
2023-04-18T12:52:06.839Z,13.00
2023-04-18T12:54:37.994Z,12.90
2023-04-18T12:57:07.554Z,13.00
2023-04-18T12:59:36.888Z,12.90
2023-04-18T13:02:06.739Z,12.80
2023-04-18T13:04:36.392Z,12.80
2023-04-18T13:07:05.894Z,12.80
2023-04-18T13:09:35.852Z,12.80
2023-04-18T13:12:05.243Z,12.80
2023-04-18T13:14:34.590Z,12.70
2023-04-18T13:17:04.187Z,12.70
2023-04-18T13:19:34.005Z,12.60
2023-04-18T13:22:03.438Z,12.50
2023-04-18T13:24:33.521Z,12.50
2023-04-18T13:27:05.191Z,12.50
2023-04-18T13:29:34.903Z,12.50
2023-04-18T13:32:04.671Z,12.40
2023-04-18T13:34:36.217Z,12.40
2023-04-18T13:37:05.581Z,12.40
2023-04-18T13:39:35.730Z,12.30
2023-04-18T13:42:05.955Z,12.30
2023-04-18T13:44:36.300Z,12.30
2023-04-18T13:47:10.601Z,12.20
2023-04-18T13:49:39.907Z,12.20
2023-04-18T13:52:09.770Z,12.20
2023-04-18T13:54:39.432Z,12.20
2023-04-18T13:57:13.660Z,12.20
2023-04-18T13:59:43.360Z,12.10
2023-04-18T14:02:13.358Z,12.10
2023-04-18T14:04:43.087Z,12.10
2023-04-18T14:07:13.941Z,12.10
2023-04-18T14:09:43.652Z,12.00
2023-04-18T14:12:13.410Z,12.00
2023-04-18T14:14:42.757Z,12.00
2023-04-18T14:17:12.102Z,12.00
2023-04-18T14:19:41.439Z,12.00
2023-04-18T14:22:10.739Z,11.90
2023-04-18T14:24:40.039Z,11.90
2023-04-18T14:27:09.437Z,11.90
2023-04-18T14:29:38.802Z,11.90
2023-04-18T14:32:08.636Z,11.80
2023-04-18T14:34:38.915Z,11.80
2023-04-18T14:37:08.348Z,11.80
2023-04-18T14:39:38.267Z,11.80
2023-04-18T17:22:05.629Z,9.70
2023-04-18T17:24:35.581Z,9.70
2023-04-18T17:27:05.091Z,9.70
2023-04-18T17:29:34.952Z,9.70
2023-04-18T17:32:04.479Z,9.60
2023-04-18T17:34:34.368Z,9.60
2023-04-18T17:37:04.604Z,9.60
2023-04-18T17:39:35.612Z,9.60
2023-04-18T17:42:04.962Z,9.60
2023-04-18T17:44:34.748Z,9.60
2023-04-18T17:47:04.111Z,9.50
2023-04-18T17:49:36.508Z,9.50
2023-04-18T17:52:06.421Z,9.50
2023-04-18T17:54:35.733Z,9.50
2023-04-18T17:57:05.729Z,9.40
2023-04-18T17:59:39.505Z,9.40
2023-04-18T18:02:09.082Z,9.30
2023-04-18T18:04:39.395Z,9.30
2023-04-18T18:07:08.866Z,9.30
2023-04-18T18:09:38.647Z,9.30
2023-04-18T18:12:08.046Z,9.30
2023-04-18T18:14:37.568Z,9.20
2023-04-18T18:17:07.785Z,9.20
2023-04-18T18:19:38.478Z,9.10
2023-04-18T18:22:07.871Z,9.10
2023-04-18T18:24:37.647Z,9.10
2023-04-18T18:27:08.118Z,9.10
2023-04-18T18:29:37.859Z,9.10
2023-04-18T18:32:07.574Z,9.10
2023-04-18T18:34:37.731Z,9.10
2023-04-18T18:37:07.694Z,9.00
2023-04-18T18:39:38.687Z,9.00
2023-04-18T18:42:08.531Z,9.10
2023-04-18T18:44:37.891Z,9.00
2023-04-18T18:47:07.420Z,8.90
2023-04-18T18:49:37.600Z,8.90
2023-04-18T18:52:07.583Z,8.90
2023-04-18T18:54:37.087Z,8.80
2023-04-18T18:57:06.489Z,8.80
2023-04-18T18:59:35.880Z,8.80
2023-04-18T19:02:05.733Z,8.80
2023-04-18T19:04:36.168Z,8.80
2023-04-18T19:07:07.597Z,8.80
2023-04-18T19:09:38.842Z,8.80
2023-04-18T19:12:08.823Z,8.80
2023-04-18T19:14:39.449Z,8.70
2023-04-18T19:17:09.649Z,8.80
2023-04-18T19:19:39.343Z,8.70
2023-04-18T19:22:09.264Z,8.70
2023-04-18T19:24:38.990Z,8.70
2023-04-18T19:27:08.354Z,8.70
2023-04-18T19:29:38.141Z,8.70
2023-04-18T19:32:08.023Z,8.70
2023-04-18T19:34:37.794Z,8.70
2023-04-18T19:37:07.929Z,8.70
2023-04-18T19:39:37.662Z,8.70
2023-04-18T19:42:07.376Z,8.60
2023-04-18T19:44:37.224Z,8.60
2023-04-18T19:47:06.947Z,8.60
2023-04-18T19:49:36.950Z,8.50
2023-04-18T19:52:06.416Z,8.60
2023-04-18T19:54:36.127Z,8.60
2023-04-18T19:57:06.360Z,8.50
2023-04-18T19:59:35.657Z,8.40
2023-04-18T20:02:06.553Z,8.40
2023-04-18T20:04:36.829Z,8.40
2023-04-18T20:07:06.383Z,8.30
2023-04-18T20:09:36.073Z,8.40
2023-04-18T20:12:05.453Z,8.40
2023-04-18T20:14:35.228Z,8.40
2023-04-18T20:17:04.572Z,8.40
2023-04-18T20:19:34.327Z,8.30
2023-04-18T20:22:04.123Z,8.30
2023-04-18T20:24:41.270Z,8.30
2023-04-18T20:27:10.669Z,8.20
2023-04-18T20:29:40.028Z,8.30
2023-04-18T20:32:09.799Z,8.30
2023-04-18T20:34:39.506Z,8.20
2023-04-18T20:37:12.315Z,8.20
2023-04-18T20:39:42.017Z,8.10
2023-04-18T20:42:16.361Z,8.10
2023-04-18T20:44:48.645Z,8.10
2023-04-18T20:47:17.999Z,8.10
2023-04-18T20:49:47.360Z,8.10
2023-04-18T20:52:16.648Z,8.10
2023-04-18T20:54:46.165Z,8.10
2023-04-18T20:57:15.522Z,8.10
2023-04-18T20:59:46.084Z,8.00
2023-04-18T21:02:16.036Z,8.00
2023-04-18T21:04:45.633Z,8.10
2023-04-18T21:07:15.509Z,8.00
2023-04-18T21:09:44.862Z,8.00
2023-04-18T21:12:14.565Z,8.00
2023-04-18T21:14:43.978Z,8.10
2023-04-18T21:17:18.544Z,8.00
2023-04-18T21:19:48.390Z,8.10
2023-04-18T21:22:18.869Z,8.10
2023-04-18T21:24:48.887Z,8.20
2023-04-18T21:27:19.287Z,8.20
2023-04-18T21:29:49.191Z,8.20
2023-04-18T21:32:19.554Z,8.20
2023-04-18T21:34:49.602Z,8.20
2023-04-18T21:37:19.308Z,8.20
2023-04-18T21:39:48.607Z,8.30
2023-04-18T21:42:18.443Z,8.30
2023-04-18T21:44:48.122Z,8.30
2023-04-18T21:47:17.819Z,8.30
2023-04-18T21:49:47.138Z,8.40
2023-04-18T21:52:16.444Z,8.40
2023-04-18T21:54:46.220Z,8.50
2023-04-18T21:57:15.529Z,8.60
2023-04-18T21:59:45.283Z,8.70
2023-04-18T22:02:15.072Z,8.80
2023-04-18T22:04:46.095Z,8.90
2023-04-18T22:07:17.064Z,9.00
2023-04-18T22:09:48.006Z,9.00
2023-04-18T22:12:18.499Z,9.10
2023-04-18T22:14:50.309Z,9.30
2023-04-18T22:17:20.025Z,9.30
2023-04-18T22:19:52.496Z,9.50
2023-04-18T22:22:21.797Z,9.50
2023-04-18T22:24:51.480Z,9.70
2023-04-18T22:27:20.994Z,9.80
2023-04-18T22:29:50.687Z,10.00
2023-04-18T22:32:20.511Z,10.10
2023-04-18T22:34:50.740Z,10.20
2023-04-18T22:37:20.533Z,10.30
2023-04-18T22:39:50.347Z,10.40
2023-04-18T22:42:20.228Z,10.60
2023-04-18T22:44:49.566Z,10.80
2023-04-18T22:47:18.918Z,10.80
2023-04-18T22:49:49.166Z,11.00
2023-04-18T22:52:18.507Z,11.10
2023-04-18T22:54:48.056Z,11.30
2023-04-18T22:57:17.547Z,11.40
2023-04-18T22:59:46.998Z,11.50
2023-04-18T23:02:16.595Z,11.70
2023-04-18T23:04:47.030Z,11.80
2023-04-18T23:07:16.483Z,11.90
2023-04-18T23:09:45.835Z,12.10
2023-04-18T23:12:15.596Z,12.20
2023-04-18T23:14:45.065Z,12.40
2023-04-18T23:17:14.405Z,12.50
2023-04-18T23:19:44.192Z,12.60
2023-04-18T23:22:13.658Z,12.80
2023-04-18T23:24:42.992Z,12.90
2023-04-18T23:27:12.344Z,13.00
2023-04-18T23:29:41.769Z,13.10
2023-04-18T23:32:11.116Z,13.20
2023-04-18T23:34:40.868Z,13.30
2023-04-18T23:37:11.625Z,13.40
2023-04-18T23:39:41.360Z,13.60
2023-04-18T23:42:10.781Z,13.70
2023-04-18T23:44:40.944Z,13.80
2023-04-18T23:47:10.764Z,13.90
2023-04-18T23:49:40.940Z,14.10
2023-04-18T23:52:10.767Z,14.20
2023-04-18T23:54:40.185Z,14.40
2023-04-18T23:57:09.609Z,14.50
2023-04-18T23:59:39.052Z,14.60
